sensor_id;sensor_type;location;lat;lon;timestamp;temperature;humidity
8043;DHT22;4064;48.132;11.366;2023-09-19T00:00:21;15.80;99.90
8043;DHT22;4064;48.132;11.366;2023-09-19T00:05:20;15.90;99.90
8043;DHT22;4064;48.132;11.366;2023-09-19T00:07:50;15.80;99.90
8043;DHT22;4064;48.132;11.366;2023-09-19T00:10:17;15.70;99.90
8043;DHT22;4064;48.132;11.366;2023-09-19T00:12:45;15.80;99.90
8043;DHT22;4064;48.132;11.366;2023-09-19T00:15:11;15.80;99.90
8043;DHT22;4064;48.132;11.366;2023-09-19T00:17:37;15.90;99.90
8043;DHT22;4064;48.132;11.366;2023-09-19T00:20:03;15.80;99.90
8043;DHT22;4064;48.132;11.366;2023-09-19T00:22:40;15.70;99.90
8043;DHT22;4064;48.132;11.366;2023-09-19T00:25:07;15.70;99.90
8043;DHT22;4064;48.132;11.366;2023-09-19T00:27:32;15.70;99.90
8043;DHT22;4064;48.132;11.366;2023-09-19T00:30:00;15.70;99.90
8043;DHT22;4064;48.132;11.366;2023-09-19T00:32:26;15.70;99.90
8043;DHT22;4064;48.132;11.366;2023-09-19T00:34:57;15.80;99.90
8043;DHT22;4064;48.132;11.366;2023-09-19T00:37:23;15.70;99.90
8043;DHT22;4064;48.132;11.366;2023-09-19T00:39:49;15.60;99.90
8043;DHT22;4064;48.132;11.366;2023-09-19T00:42:19;15.70;99.90
8043;DHT22;4064;48.132;11.366;2023-09-19T00:44:47;15.80;99.90
8043;DHT22;4064;48.132;11.366;2023-09-19T00:47:13;15.90;99.90
8043;DHT22;4064;48.132;11.366;2023-09-19T00:49:46;15.90;99.90
8043;DHT22;4064;48.132;11.366;2023-09-19T00:52:18;16.00;99.90
8043;DHT22;4064;48.132;11.366;2023-09-19T00:54:49;16.10;99.90
8043;DHT22;4064;48.132;11.366;2023-09-19T00:57:15;16.10;99.90
8043;DHT22;4064;48.132;11.366;2023-09-19T00:59:45;16.10;99.90
8043;DHT22;4064;48.132;11.366;2023-09-19T01:02:14;16.10;99.90
8043;DHT22;4064;48.132;11.366;2023-09-19T01:04:40;16.10;99.90
8043;DHT22;4064;48.132;11.366;2023-09-19T01:07:06;16.10;99.90
8043;DHT22;4064;48.132;11.366;2023-09-19T01:09:34;16.10;99.90
8043;DHT22;4064;48.132;11.366;2023-09-19T01:12:02;16.00;99.90
8043;DHT22;4064;48.132;11.366;2023-09-19T01:14:47;16.10;99.90
8043;DHT22;4064;48.132;11.366;2023-09-19T01:17:30;16.20;99.90
8043;DHT22;4064;48.132;11.366;2023-09-19T01:20:19;16.20;99.90
8043;DHT22;4064;48.132;11.366;2023-09-19T01:22:56;16.20;99.90
8043;DHT22;4064;48.132;11.366;2023-09-19T01:28:55;16.30;99.90
8043;DHT22;4064;48.132;11.366;2023-09-19T01:31:31;16.30;99.90
8043;DHT22;4064;48.132;11.366;2023-09-19T01:34:02;16.30;99.90
8043;DHT22;4064;48.132;11.366;2023-09-19T01:36:34;16.30;99.90
8043;DHT22;4064;48.132;11.366;2023-09-19T01:39:03;16.30;99.90
8043;DHT22;4064;48.132;11.366;2023-09-19T01:41:58;16.40;99.90
8043;DHT22;4064;48.132;11.366;2023-09-19T01:52:56;16.40;99.90
8043;DHT22;4064;48.132;11.366;2023-09-19T01:55:26;16.50;99.90
8043;DHT22;4064;48.132;11.366;2023-09-19T01:58:14;16.50;99.90
8043;DHT22;4064;48.132;11.366;2023-09-19T02:00:42;16.50;99.90
8043;DHT22;4064;48.132;11.366;2023-09-19T02:03:11;16.50;99.90
8043;DHT22;4064;48.132;11.366;2023-09-19T02:05:38;16.50;99.90
8043;DHT22;4064;48.132;11.366;2023-09-19T02:08:05;16.50;99.90
8043;DHT22;4064;48.132;11.366;2023-09-19T02:10:30;16.50;99.90
8043;DHT22;4064;48.132;11.366;2023-09-19T02:12:56;16.50;99.90
8043;DHT22;4064;48.132;11.366;2023-09-19T02:15:22;16.40;99.90
8043;DHT22;4064;48.132;11.366;2023-09-19T02:17:47;16.40;99.90
8043;DHT22;4064;48.132;11.366;2023-09-19T02:20:13;16.30;99.90
8043;DHT22;4064;48.132;11.366;2023-09-19T02:22:42;16.30;99.90
8043;DHT22;4064;48.132;11.366;2023-09-19T02:25:08;16.30;99.90
8043;DHT22;4064;48.132;11.366;2023-09-19T02:27:34;16.30;99.90
8043;DHT22;4064;48.132;11.366;2023-09-19T02:30:00;16.30;99.90
8043;DHT22;4064;48.132;11.366;2023-09-19T02:32:29;16.30;99.90
8043;DHT22;4064;48.132;11.366;2023-09-19T02:34:57;16.20;99.90
8043;DHT22;4064;48.132;11.366;2023-09-19T02:37:24;16.20;99.90
8043;DHT22;4064;48.132;11.366;2023-09-19T02:39:50;16.20;99.90
8043;DHT22;4064;48.132;11.366;2023-09-19T02:42:15;16.10;99.90
8043;DHT22;4064;48.132;11.366;2023-09-19T02:44:41;16.10;99.90
8043;DHT22;4064;48.132;11.366;2023-09-19T02:47:07;16.10;99.90
8043;DHT22;4064;48.132;11.366;2023-09-19T02:49:32;16.20;99.90
8043;DHT22;4064;48.132;11.366;2023-09-19T02:51:58;16.20;99.90
8043;DHT22;4064;48.132;11.366;2023-09-19T02:54:25;16.20;99.90
8043;DHT22;4064;48.132;11.366;2023-09-19T02:56:50;16.20;99.90
8043;DHT22;4064;48.132;11.366;2023-09-19T02:59:16;16.20;99.90
8043;DHT22;4064;48.132;11.366;2023-09-19T03:01:45;16.20;99.90
8043;DHT22;4064;48.132;11.366;2023-09-19T03:04:14;16.20;99.90
8043;DHT22;4064;48.132;11.366;2023-09-19T03:06:42;16.20;99.90
8043;DHT22;4064;48.132;11.366;2023-09-19T03:09:09;16.20;99.90
8043;DHT22;4064;48.132;11.366;2023-09-19T03:11:39;16.20;99.90
8043;DHT22;4064;48.132;11.366;2023-09-19T03:14:07;16.20;99.90
8043;DHT22;4064;48.132;11.366;2023-09-19T03:16:33;16.20;99.90
8043;DHT22;4064;48.132;11.366;2023-09-19T03:18:59;16.20;99.90
8043;DHT22;4064;48.132;11.366;2023-09-19T03:21:25;16.20;99.90
8043;DHT22;4064;48.132;11.366;2023-09-19T03:23:51;16.30;99.90
8043;DHT22;4064;48.132;11.366;2023-09-19T03:26:16;16.20;99.90
8043;DHT22;4064;48.132;11.366;2023-09-19T03:28:43;16.30;99.90
8043;DHT22;4064;48.132;11.366;2023-09-19T03:31:09;16.20;99.90
8043;DHT22;4064;48.132;11.366;2023-09-19T03:33:35;16.20;99.90
8043;DHT22;4064;48.132;11.366;2023-09-19T03:36:02;16.20;99.90
8043;DHT22;4064;48.132;11.366;2023-09-19T03:38:30;16.20;99.90
8043;DHT22;4064;48.132;11.366;2023-09-19T03:40:56;16.20;99.90
8043;DHT22;4064;48.132;11.366;2023-09-19T03:43:22;16.10;99.90
8043;DHT22;4064;48.132;11.366;2023-09-19T03:45:47;16.20;99.90
8043;DHT22;4064;48.132;11.366;2023-09-19T03:48:14;16.20;99.90
8043;DHT22;4064;48.132;11.366;2023-09-19T03:50:40;16.20;99.90
8043;DHT22;4064;48.132;11.366;2023-09-19T03:53:05;16.20;99.90
8043;DHT22;4064;48.132;11.366;2023-09-19T03:55:32;16.30;99.90
8043;DHT22;4064;48.132;11.366;2023-09-19T03:58:01;16.30;99.90
8043;DHT22;4064;48.132;11.366;2023-09-19T04:00:27;16.40;99.90
8043;DHT22;4064;48.132;11.366;2023-09-19T04:02:53;16.30;99.90
8043;DHT22;4064;48.132;11.366;2023-09-19T04:05:19;16.30;99.90
8043;DHT22;4064;48.132;11.366;2023-09-19T04:07:44;16.30;99.90
8043;DHT22;4064;48.132;11.366;2023-09-19T04:10:10;16.30;99.90
8043;DHT22;4064;48.132;11.366;2023-09-19T04:12:40;16.30;99.90
8043;DHT22;4064;48.132;11.366;2023-09-19T04:15:06;16.30;99.90
8043;DHT22;4064;48.132;11.366;2023-09-19T04:17:32;16.30;99.90
8043;DHT22;4064;48.132;11.366;2023-09-19T04:20:00;16.20;99.90
8043;DHT22;4064;48.132;11.366;2023-09-19T04:22:26;16.20;99.90
8043;DHT22;4064;48.132;11.366;2023-09-19T04:24:51;16.20;99.90
8043;DHT22;4064;48.132;11.366;2023-09-19T04:27:17;16.20;99.90
8043;DHT22;4064;48.132;11.366;2023-09-19T04:29:44;16.10;99.90
8043;DHT22;4064;48.132;11.366;2023-09-19T04:32:09;16.10;99.90
8043;DHT22;4064;48.132;11.366;2023-09-19T04:34:36;16.10;99.90
8043;DHT22;4064;48.132;11.366;2023-09-19T04:37:02;16.10;99.90
8043;DHT22;4064;48.132;11.366;2023-09-19T04:39:29;16.10;99.90
8043;DHT22;4064;48.132;11.366;2023-09-19T04:41:54;16.10;99.90
8043;DHT22;4064;48.132;11.366;2023-09-19T04:44:20;16.10;99.90
8043;DHT22;4064;48.132;11.366;2023-09-19T04:46:46;16.10;99.90
8043;DHT22;4064;48.132;11.366;2023-09-19T04:49:13;16.10;99.90
8043;DHT22;4064;48.132;11.366;2023-09-19T04:51:39;16.10;99.90
8043;DHT22;4064;48.132;11.366;2023-09-19T04:54:06;16.10;99.90
8043;DHT22;4064;48.132;11.366;2023-09-19T04:56:32;16.00;99.90
8043;DHT22;4064;48.132;11.366;2023-09-19T04:58:59;16.00;99.90
8043;DHT22;4064;48.132;11.366;2023-09-19T05:01:26;16.00;99.90
8043;DHT22;4064;48.132;11.366;2023-09-19T05:03:52;16.10;99.90
8043;DHT22;4064;48.132;11.366;2023-09-19T05:06:18;16.00;99.90
8043;DHT22;4064;48.132;11.366;2023-09-19T05:08:46;16.00;99.90
8043;DHT22;4064;48.132;11.366;2023-09-19T05:11:15;16.00;99.90
8043;DHT22;4064;48.132;11.366;2023-09-19T05:13:41;16.00;99.90
8043;DHT22;4064;48.132;11.366;2023-09-19T05:16:06;16.00;99.90
8043;DHT22;4064;48.132;11.366;2023-09-19T05:18:35;16.00;99.90
8043;DHT22;4064;48.132;11.366;2023-09-19T05:21:02;16.00;99.90
8043;DHT22;4064;48.132;11.366;2023-09-19T05:23:28;16.00;99.90
8043;DHT22;4064;48.132;11.366;2023-09-19T05:25:54;16.00;99.90
8043;DHT22;4064;48.132;11.366;2023-09-19T05:28:22;16.00;99.90
8043;DHT22;4064;48.132;11.366;2023-09-19T05:30:48;16.00;99.90
8043;DHT22;4064;48.132;11.366;2023-09-19T05:33:14;16.00;99.90
8043;DHT22;4064;48.132;11.366;2023-09-19T05:35:40;15.90;99.90
8043;DHT22;4064;48.132;11.366;2023-09-19T05:38:07;15.90;99.90
8043;DHT22;4064;48.132;11.366;2023-09-19T05:40:38;15.90;99.90
8043;DHT22;4064;48.132;11.366;2023-09-19T05:43:06;15.80;99.90
8043;DHT22;4064;48.132;11.366;2023-09-19T05:45:31;15.80;99.90
8043;DHT22;4064;48.132;11.366;2023-09-19T05:48:11;15.90;99.90
8043;DHT22;4064;48.132;11.366;2023-09-19T05:50:42;15.90;99.90
8043;DHT22;4064;48.132;11.366;2023-09-19T05:53:08;16.00;99.90
8043;DHT22;4064;48.132;11.366;2023-09-19T05:55:38;16.00;99.90
8043;DHT22;4064;48.132;11.366;2023-09-19T05:58:04;16.10;99.90
8043;DHT22;4064;48.132;11.366;2023-09-19T06:00:30;16.10;99.90
8043;DHT22;4064;48.132;11.366;2023-09-19T06:02:58;16.20;99.90
8043;DHT22;4064;48.132;11.366;2023-09-19T06:05:25;16.20;99.90
8043;DHT22;4064;48.132;11.366;2023-09-19T06:07:55;16.20;99.90
8043;DHT22;4064;48.132;11.366;2023-09-19T06:10:23;16.20;99.90
8043;DHT22;4064;48.132;11.366;2023-09-19T06:12:50;16.30;99.90
8043;DHT22;4064;48.132;11.366;2023-09-19T06:15:16;16.30;99.90
8043;DHT22;4064;48.132;11.366;2023-09-19T06:18:02;16.30;99.90
8043;DHT22;4064;48.132;11.366;2023-09-19T06:20:30;16.30;99.90
8043;DHT22;4064;48.132;11.366;2023-09-19T06:22:57;16.40;99.90
8043;DHT22;4064;48.132;11.366;2023-09-19T06:25:22;16.40;99.90
8043;DHT22;4064;48.132;11.366;2023-09-19T06:27:49;16.40;99.90
8043;DHT22;4064;48.132;11.366;2023-09-19T06:30:17;16.40;99.90
8043;DHT22;4064;48.132;11.366;2023-09-19T06:32:43;16.50;99.90
8043;DHT22;4064;48.132;11.366;2023-09-19T06:35:10;16.60;99.90
8043;DHT22;4064;48.132;11.366;2023-09-19T06:37:40;16.70;99.90
8043;DHT22;4064;48.132;11.366;2023-09-19T06:40:13;16.70;99.90
8043;DHT22;4064;48.132;11.366;2023-09-19T06:42:44;16.80;99.90
8043;DHT22;4064;48.132;11.366;2023-09-19T06:45:12;16.90;99.90
8043;DHT22;4064;48.132;11.366;2023-09-19T06:47:39;17.10;99.90
8043;DHT22;4064;48.132;11.366;2023-09-19T06:50:05;17.40;99.90
8043;DHT22;4064;48.132;11.366;2023-09-19T06:52:34;17.40;99.90
8043;DHT22;4064;48.132;11.366;2023-09-19T06:55:00;17.30;99.90
8043;DHT22;4064;48.132;11.366;2023-09-19T06:57:28;17.20;99.90
8043;DHT22;4064;48.132;11.366;2023-09-19T06:59:55;17.10;99.90
8043;DHT22;4064;48.132;11.366;2023-09-19T07:02:21;17.00;99.90
8043;DHT22;4064;48.132;11.366;2023-09-19T07:04:47;17.00;99.90
8043;DHT22;4064;48.132;11.366;2023-09-19T07:07:12;17.10;99.90
8043;DHT22;4064;48.132;11.366;2023-09-19T07:09:39;17.20;99.90
8043;DHT22;4064;48.132;11.366;2023-09-19T07:12:05;17.40;99.90
8043;DHT22;4064;48.132;11.366;2023-09-19T07:14:31;17.50;99.90
8043;DHT22;4064;48.132;11.366;2023-09-19T07:16:56;17.60;99.90
8043;DHT22;4064;48.132;11.366;2023-09-19T07:19:22;17.90;99.90
8043;DHT22;4064;48.132;11.366;2023-09-19T07:21:47;18.40;99.90
8043;DHT22;4064;48.132;11.366;2023-09-19T07:24:15;19.20;99.90
8043;DHT22;4064;48.132;11.366;2023-09-19T07:26:41;19.10;99.90
8043;DHT22;4064;48.132;11.366;2023-09-19T07:29:06;19.00;99.90
8043;DHT22;4064;48.132;11.366;2023-09-19T07:31:34;19.70;99.90
8043;DHT22;4064;48.132;11.366;2023-09-19T07:33:59;19.20;99.90
8043;DHT22;4064;48.132;11.366;2023-09-19T07:36:25;18.70;99.90
8043;DHT22;4064;48.132;11.366;2023-09-19T07:38:51;19.40;99.90
8043;DHT22;4064;48.132;11.366;2023-09-19T07:41:16;19.80;99.90
8043;DHT22;4064;48.132;11.366;2023-09-19T07:43:42;20.30;99.90
8043;DHT22;4064;48.132;11.366;2023-09-19T07:46:09;20.10;99.90
8043;DHT22;4064;48.132;11.366;2023-09-19T07:48:35;20.40;99.90
8043;DHT22;4064;48.132;11.366;2023-09-19T07:51:05;20.10;99.90
8043;DHT22;4064;48.132;11.366;2023-09-19T07:53:32;19.90;99.90
8043;DHT22;4064;48.132;11.366;2023-09-19T07:56:08;19.90;99.90
8043;DHT22;4064;48.132;11.366;2023-09-19T07:58:34;19.80;99.90
8043;DHT22;4064;48.132;11.366;2023-09-19T08:01:08;19.50;99.90
8043;DHT22;4064;48.132;11.366;2023-09-19T08:03:37;19.20;99.90
8043;DHT22;4064;48.132;11.366;2023-09-19T08:06:09;19.10;99.90
8043;DHT22;4064;48.132;11.366;2023-09-19T08:08:36;19.00;99.90
8043;DHT22;4064;48.132;11.366;2023-09-19T08:11:05;19.00;99.90
8043;DHT22;4064;48.132;11.366;2023-09-19T08:13:39;18.80;99.90
8043;DHT22;4064;48.132;11.366;2023-09-19T08:16:12;19.10;99.90
8043;DHT22;4064;48.132;11.366;2023-09-19T08:18:38;20.00;99.90
8043;DHT22;4064;48.132;11.366;2023-09-19T08:21:06;21.00;99.90
8043;DHT22;4064;48.132;11.366;2023-09-19T08:23:39;21.50;99.90
8043;DHT22;4064;48.132;11.366;2023-09-19T08:26:05;21.50;99.90
8043;DHT22;4064;48.132;11.366;2023-09-19T08:28:36;22.10;99.90
8043;DHT22;4064;48.132;11.366;2023-09-19T08:31:07;22.40;99.90
8043;DHT22;4064;48.132;11.366;2023-09-19T08:33:34;22.60;99.90
8043;DHT22;4064;48.132;11.366;2023-09-19T08:36:01;23.00;99.90
8043;DHT22;4064;48.132;11.366;2023-09-19T08:38:33;23.10;99.90
8043;DHT22;4064;48.132;11.366;2023-09-19T08:41:00;23.00;99.90
8043;DHT22;4064;48.132;11.366;2023-09-19T08:43:27;22.80;99.90
8043;DHT22;4064;48.132;11.366;2023-09-19T08:46:02;22.40;99.90
8043;DHT22;4064;48.132;11.366;2023-09-19T08:48:29;21.90;99.90
8043;DHT22;4064;48.132;11.366;2023-09-19T08:51:00;21.30;99.90
8043;DHT22;4064;48.132;11.366;2023-09-19T08:56:19;20.60;99.90
8043;DHT22;4064;48.132;11.366;2023-09-19T08:58:51;20.50;99.90
8043;DHT22;4064;48.132;11.366;2023-09-19T09:01:19;20.50;99.90
8043;DHT22;4064;48.132;11.366;2023-09-19T09:03:54;20.50;99.90
8043;DHT22;4064;48.132;11.366;2023-09-19T09:06:24;20.30;99.90
8043;DHT22;4064;48.132;11.366;2023-09-19T09:08:51;21.00;99.90
8043;DHT22;4064;48.132;11.366;2023-09-19T09:11:18;21.30;99.90
8043;DHT22;4064;48.132;11.366;2023-09-19T09:13:45;21.60;99.90
8043;DHT22;4064;48.132;11.366;2023-09-19T09:16:11;21.60;99.90
8043;DHT22;4064;48.132;11.366;2023-09-19T09:18:38;21.70;99.90
8043;DHT22;4064;48.132;11.366;2023-09-19T09:21:04;21.90;99.90
8043;DHT22;4064;48.132;11.366;2023-09-19T09:23:30;22.10;99.90
8043;DHT22;4064;48.132;11.366;2023-09-19T09:25:59;21.90;99.90
8043;DHT22;4064;48.132;11.366;2023-09-19T09:28:28;22.10;99.90
8043;DHT22;4064;48.132;11.366;2023-09-19T09:30:56;22.10;99.90
8043;DHT22;4064;48.132;11.366;2023-09-19T09:33:24;21.80;99.90
8043;DHT22;4064;48.132;11.366;2023-09-19T09:38:23;22.20;99.90
8043;DHT22;4064;48.132;11.366;2023-09-19T09:40:56;22.00;99.90
8043;DHT22;4064;48.132;11.366;2023-09-19T09:43:38;21.50;99.90
8043;DHT22;4064;48.132;11.366;2023-09-19T09:46:15;21.10;99.90
8043;DHT22;4064;48.132;11.366;2023-09-19T09:51:33;20.50;99.90
8043;DHT22;4064;48.132;11.366;2023-09-19T09:54:18;20.20;99.90
8043;DHT22;4064;48.132;11.366;2023-09-19T09:56:58;20.40;99.90
8043;DHT22;4064;48.132;11.366;2023-09-19T10:02:35;20.30;99.90
8043;DHT22;4064;48.132;11.366;2023-09-19T10:05:20;20.30;99.90
8043;DHT22;4064;48.132;11.366;2023-09-19T10:07:47;20.70;99.90
8043;DHT22;4064;48.132;11.366;2023-09-19T10:10:37;20.90;99.90
8043;DHT22;4064;48.132;11.366;2023-09-19T10:13:07;20.90;99.90
8043;DHT22;4064;48.132;11.366;2023-09-19T10:15:33;20.80;99.90
8043;DHT22;4064;48.132;11.366;2023-09-19T10:18:05;20.80;99.90
8043;DHT22;4064;48.132;11.366;2023-09-19T10:20:33;20.70;99.90
8043;DHT22;4064;48.132;11.366;2023-09-19T10:23:08;20.50;99.90
8043;DHT22;4064;48.132;11.366;2023-09-19T10:25:40;20.40;99.90
8043;DHT22;4064;48.132;11.366;2023-09-19T10:28:07;20.10;99.90
8043;DHT22;4064;48.132;11.366;2023-09-19T10:30:46;19.90;99.90
8043;DHT22;4064;48.132;11.366;2023-09-19T10:33:17;20.30;99.90
8043;DHT22;4064;48.132;11.366;2023-09-19T10:35:45;20.40;99.90
8043;DHT22;4064;48.132;11.366;2023-09-19T10:38:12;20.50;99.90
8043;DHT22;4064;48.132;11.366;2023-09-19T10:40:39;20.70;99.90
8043;DHT22;4064;48.132;11.366;2023-09-19T10:43:15;20.90;99.90
8043;DHT22;4064;48.132;11.366;2023-09-19T10:45:45;21.10;99.90
8043;DHT22;4064;48.132;11.366;2023-09-19T10:48:12;21.00;99.90
8043;DHT22;4064;48.132;11.366;2023-09-19T10:50:50;20.70;99.90
8043;DHT22;4064;48.132;11.366;2023-09-19T10:53:17;21.10;99.90
8043;DHT22;4064;48.132;11.366;2023-09-19T10:55:55;21.70;99.90
8043;DHT22;4064;48.132;11.366;2023-09-19T10:58:30;22.10;99.90
8043;DHT22;4064;48.132;11.366;2023-09-19T11:01:00;22.50;99.90
8043;DHT22;4064;48.132;11.366;2023-09-19T11:03:34;22.60;99.70
8043;DHT22;4064;48.132;11.366;2023-09-19T11:08:56;23.20;99.00
8043;DHT22;4064;48.132;11.366;2023-09-19T11:11:42;23.40;98.40
8043;DHT22;4064;48.132;11.366;2023-09-19T11:14:29;23.80;96.90
8043;DHT22;4064;48.132;11.366;2023-09-19T11:23:16;23.20;96.20
8043;DHT22;4064;48.132;11.366;2023-09-19T11:25:44;23.00;95.30
8043;DHT22;4064;48.132;11.366;2023-09-19T11:28:27;22.90;96.30
8043;DHT22;4064;48.132;11.366;2023-09-19T11:30:53;22.70;95.20
8043;DHT22;4064;48.132;11.366;2023-09-19T11:33:30;22.60;95.70
8043;DHT22;4064;48.132;11.366;2023-09-19T11:36:05;23.20;94.80
8043;DHT22;4064;48.132;11.366;2023-09-19T11:46:27;24.30;92.70
8043;DHT22;4064;48.132;11.366;2023-09-19T11:48:54;24.30;92.70
8043;DHT22;4064;48.132;11.366;2023-09-19T11:51:24;24.30;92.60
8043;DHT22;4064;48.132;11.366;2023-09-19T11:53:57;24.30;92.60
8043;DHT22;4064;48.132;11.366;2023-09-19T11:56:25;24.50;93.50
8043;DHT22;4064;48.132;11.366;2023-09-19T11:58:55;24.10;92.30
8043;DHT22;4064;48.132;11.366;2023-09-19T12:01:29;24.20;91.10
8043;DHT22;4064;48.132;11.366;2023-09-19T12:03:58;24.20;92.20
8043;DHT22;4064;48.132;11.366;2023-09-19T12:06:28;24.10;91.00
8043;DHT22;4064;48.132;11.366;2023-09-19T12:09:21;24.30;90.90
8043;DHT22;4064;48.132;11.366;2023-09-19T12:11:47;24.40;91.80
8043;DHT22;4064;48.132;11.366;2023-09-19T12:14:25;24.60;91.80
8043;DHT22;4064;48.132;11.366;2023-09-19T12:16:58;24.90;89.40
8043;DHT22;4064;48.132;11.366;2023-09-19T12:19:26;25.00;90.00
8043;DHT22;4064;48.132;11.366;2023-09-19T12:22:02;25.00;86.80
8043;DHT22;4064;48.132;11.366;2023-09-19T12:24:31;25.10;87.60
8043;DHT22;4064;48.132;11.366;2023-09-19T12:27:04;25.20;83.90
8043;DHT22;4064;48.132;11.366;2023-09-19T12:29:32;25.10;87.00
8043;DHT22;4064;48.132;11.366;2023-09-19T12:32:06;24.50;84.40
8043;DHT22;4064;48.132;11.366;2023-09-19T12:34:33;24.60;87.30
8043;DHT22;4064;48.132;11.366;2023-09-19T12:37:11;24.80;90.00
8043;DHT22;4064;48.132;11.366;2023-09-19T12:39:44;25.60;89.90
8043;DHT22;4064;48.132;11.366;2023-09-19T12:42:26;25.80;84.80
8043;DHT22;4064;48.132;11.366;2023-09-19T12:45:00;25.50;82.30
8043;DHT22;4064;48.132;11.366;2023-09-19T12:47:28;25.30;82.50
8043;DHT22;4064;48.132;11.366;2023-09-19T12:50:15;25.00;84.30
8043;DHT22;4064;48.132;11.366;2023-09-19T12:52:48;25.60;83.10
8043;DHT22;4064;48.132;11.366;2023-09-19T12:55:43;25.60;81.00
8043;DHT22;4064;48.132;11.366;2023-09-19T12:58:12;25.40;83.10
8043;DHT22;4064;48.132;11.366;2023-09-19T13:00:42;25.50;82.80
8043;DHT22;4064;48.132;11.366;2023-09-19T13:11:12;26.20;87.30
8043;DHT22;4064;48.132;11.366;2023-09-19T13:13:50;25.90;89.20
8043;DHT22;4064;48.132;11.366;2023-09-19T13:16:20;25.90;90.00
8043;DHT22;4064;48.132;11.366;2023-09-19T13:18:55;26.50;88.50
8043;DHT22;4064;48.132;11.366;2023-09-19T13:21:30;26.50;83.10
8043;DHT22;4064;48.132;11.366;2023-09-19T13:24:19;26.40;82.20
8043;DHT22;4064;48.132;11.366;2023-09-19T13:26:45;26.10;78.70
8043;DHT22;4064;48.132;11.366;2023-09-19T13:29:11;25.90;78.90
8043;DHT22;4064;48.132;11.366;2023-09-19T13:31:37;25.90;78.80
8043;DHT22;4064;48.132;11.366;2023-09-19T13:34:06;25.60;77.40
8043;DHT22;4064;48.132;11.366;2023-09-19T13:36:32;25.60;79.10
8043;DHT22;4064;48.132;11.366;2023-09-19T13:38:59;25.60;77.10
8043;DHT22;4064;48.132;11.366;2023-09-19T13:41:25;25.60;76.90
8043;DHT22;4064;48.132;11.366;2023-09-19T13:43:51;25.60;75.70
8043;DHT22;4064;48.132;11.366;2023-09-19T13:46:17;25.60;78.00
8043;DHT22;4064;48.132;11.366;2023-09-19T13:48:51;25.70;72.80
8043;DHT22;4064;48.132;11.366;2023-09-19T13:51:17;25.30;75.80
8043;DHT22;4064;48.132;11.366;2023-09-19T13:53:44;25.10;79.90
8043;DHT22;4064;48.132;11.366;2023-09-19T13:56:10;25.00;76.60
8043;DHT22;4064;48.132;11.366;2023-09-19T13:58:36;24.90;76.20
8043;DHT22;4064;48.132;11.366;2023-09-19T14:01:02;24.90;78.20
8043;DHT22;4064;48.132;11.366;2023-09-19T14:03:27;25.00;78.00
8043;DHT22;4064;48.132;11.366;2023-09-19T14:05:54;25.10;78.70
8043;DHT22;4064;48.132;11.366;2023-09-19T14:08:19;25.10;79.20
8043;DHT22;4064;48.132;11.366;2023-09-19T14:10:45;25.10;79.40
8043;DHT22;4064;48.132;11.366;2023-09-19T14:13:11;25.10;78.70
8043;DHT22;4064;48.132;11.366;2023-09-19T14:15:38;24.70;78.20
8043;DHT22;4064;48.132;11.366;2023-09-19T14:18:04;24.30;79.30
8043;DHT22;4064;48.132;11.366;2023-09-19T14:20:30;24.10;83.10
8043;DHT22;4064;48.132;11.366;2023-09-19T14:22:57;24.00;79.70
8043;DHT22;4064;48.132;11.366;2023-09-19T14:25:24;24.00;78.50
8043;DHT22;4064;48.132;11.366;2023-09-19T14:27:50;23.90;78.90
8043;DHT22;4064;48.132;11.366;2023-09-19T14:30:17;23.90;79.90
8043;DHT22;4064;48.132;11.366;2023-09-19T14:32:42;23.90;80.90
8043;DHT22;4064;48.132;11.366;2023-09-19T14:35:08;24.00;83.40
8043;DHT22;4064;48.132;11.366;2023-09-19T14:37:36;23.90;82.20
8043;DHT22;4064;48.132;11.366;2023-09-19T14:40:04;23.80;83.50
8043;DHT22;4064;48.132;11.366;2023-09-19T14:42:33;23.80;85.10
8043;DHT22;4064;48.132;11.366;2023-09-19T14:45:01;23.70;82.20
8043;DHT22;4064;48.132;11.366;2023-09-19T14:47:27;23.50;84.60
8043;DHT22;4064;48.132;11.366;2023-09-19T14:49:53;23.30;86.40
8043;DHT22;4064;48.132;11.366;2023-09-19T14:52:19;23.30;83.40
8043;DHT22;4064;48.132;11.366;2023-09-19T14:54:44;23.20;83.50
8043;DHT22;4064;48.132;11.366;2023-09-19T14:57:10;23.10;82.10
8043;DHT22;4064;48.132;11.366;2023-09-19T14:59:36;23.00;82.80
8043;DHT22;4064;48.132;11.366;2023-09-19T15:02:04;23.10;83.90
8043;DHT22;4064;48.132;11.366;2023-09-19T15:04:30;23.20;83.80
8043;DHT22;4064;48.132;11.366;2023-09-19T15:06:56;22.90;82.80
8043;DHT22;4064;48.132;11.366;2023-09-19T15:09:23;22.80;84.20
8043;DHT22;4064;48.132;11.366;2023-09-19T15:11:55;22.80;83.30
8043;DHT22;4064;48.132;11.366;2023-09-19T15:14:24;22.70;83.70
8043;DHT22;4064;48.132;11.366;2023-09-19T15:16:51;22.70;84.70
8043;DHT22;4064;48.132;11.366;2023-09-19T15:19:16;22.70;84.50
8043;DHT22;4064;48.132;11.366;2023-09-19T15:21:43;22.50;82.70
8043;DHT22;4064;48.132;11.366;2023-09-19T15:24:09;22.50;84.10
8043;DHT22;4064;48.132;11.366;2023-09-19T15:26:36;22.30;84.30
8043;DHT22;4064;48.132;11.366;2023-09-19T15:29:07;22.30;85.40
8043;DHT22;4064;48.132;11.366;2023-09-19T15:31:34;22.30;84.80
8043;DHT22;4064;48.132;11.366;2023-09-19T15:34:05;22.30;86.00
8043;DHT22;4064;48.132;11.366;2023-09-19T15:36:32;22.30;85.00
8043;DHT22;4064;48.132;11.366;2023-09-19T15:39:05;22.20;85.10
8043;DHT22;4064;48.132;11.366;2023-09-19T15:41:41;22.10;84.30
8043;DHT22;4064;48.132;11.366;2023-09-19T15:44:18;22.10;85.60
8043;DHT22;4064;48.132;11.366;2023-09-19T15:46:44;22.20;83.50
8043;DHT22;4064;48.132;11.366;2023-09-19T15:49:11;22.10;84.40
8043;DHT22;4064;48.132;11.366;2023-09-19T15:51:37;22.00;84.10
8043;DHT22;4064;48.132;11.366;2023-09-19T15:54:08;22.00;84.30
8043;DHT22;4064;48.132;11.366;2023-09-19T15:56:34;22.00;84.10
8043;DHT22;4064;48.132;11.366;2023-09-19T15:59:03;21.90;83.50
8043;DHT22;4064;48.132;11.366;2023-09-19T16:01:29;21.70;86.00
8043;DHT22;4064;48.132;11.366;2023-09-19T16:03:55;21.50;86.60
8043;DHT22;4064;48.132;11.366;2023-09-19T16:06:28;21.40;85.50
8043;DHT22;4064;48.132;11.366;2023-09-19T16:08:55;21.30;86.40
8043;DHT22;4064;48.132;11.366;2023-09-19T16:11:22;21.30;87.10
8043;DHT22;4064;48.132;11.366;2023-09-19T16:13:49;21.20;86.30
8043;DHT22;4064;48.132;11.366;2023-09-19T16:16:16;21.10;86.90
8043;DHT22;4064;48.132;11.366;2023-09-19T16:18:55;20.90;87.00
8043;DHT22;4064;48.132;11.366;2023-09-19T16:21:30;20.90;87.30
8043;DHT22;4064;48.132;11.366;2023-09-19T16:23:57;20.80;87.60
8043;DHT22;4064;48.132;11.366;2023-09-19T16:26:24;20.60;89.70
8043;DHT22;4064;48.132;11.366;2023-09-19T16:28:52;20.50;91.10
8043;DHT22;4064;48.132;11.366;2023-09-19T16:31:18;20.30;91.20
8043;DHT22;4064;48.132;11.366;2023-09-19T16:33:46;20.20;91.60
8043;DHT22;4064;48.132;11.366;2023-09-19T16:36:13;20.20;91.00
8043;DHT22;4064;48.132;11.366;2023-09-19T16:38:40;20.10;92.20
8043;DHT22;4064;48.132;11.366;2023-09-19T16:41:07;19.90;92.60
8043;DHT22;4064;48.132;11.366;2023-09-19T16:43:33;19.90;92.20
8043;DHT22;4064;48.132;11.366;2023-09-19T16:46:07;19.80;93.00